Terminal Aerodrome Forecast
Issued by NWS

Home | Current Version | Previous Version | Text Only | Print | Product List | Glossary On
Versions: 1 2 3 4 5 6 7 8 9 10 11 12 13 14 15 16 17 18 19 20 21 22 23 24 25 26 27 28 29 30 31
000
FTUS41 KOKX 212344
TAFTEB
TAF
KTEB 212344Z 2200/2306 32012G17KT P6SM SCT250
     FM220200 34008KT P6SM SCT250
     FM220400 34004KT P6SM SKC
     FM221500 31006KT P6SM SKC
     FM221700 30008G15KT P6SM FEW060
     FM222200 16007KT P6SM FEW060
     FM230100 VRB04KT P6SM SKC=

USA.gov is the U.S. government's official web portal to all federal, state and local government web resources and services.